Warren, MI (48088)

10:04 AM EST on March 02, 2015 (GMT -0500)
APRSWXNET Sterling Heights MI US | Change Station
CLOSE
Current Station
Personal Weather Station
Location: Warren, MI
Elevation: 613 ft
Nearby Weather Stations

Elev 613 ft 42.50 °N, 83.00 °W | Updated 33 minutes ago

Clear
Clear
24 °F
Feels Like 18 °F
N
5
Wind Variable Wind from WNW
Gusts 14.0 mph

Today
High -- | Low -- °F
--% Chance of Precip.
Yesterday
High -- | Low -- °F
Precip. -- in
7:06 AM 6:22 PM
Waxing Gibbous, 91% visible
Pressure 30.44 in
Visibility 10.0 miles
Clouds Clear
Windchill 18 °F
Dew Point 14 °F
Humidity 65%
Rainfall 0.00 in
Snow Depth Not available.
UV 1 out of 12
Pollen .80 out of 12
Air Quality Not available.
Flu Activity Not available.
METAR KDET 021353Z 30008G15KT 10SM CLR M04/M12 A3040 RMK AO2 SLP308 T10391117

More Conditions Fewer Conditions

Pressure 30.44 in
Visibility 10.0 miles
Clouds Clear
Windchill 18 °F
Dew Point 14 °F
Humidity 65%
Rainfall 0.00 in
Snow Depth Not available.
UV 1 out of 12
Pollen .80 out of 12
Air Quality Not available.
Flu Activity Not available.
METAR KDET 021353Z 30008G15KT 10SM CLR M04/M12 A3040 RMK AO2 SLP308 T10391117

More Conditions Fewer Conditions

10-Day Weather Forecast

Almanac

Astronomy

Mar. 02, 2015 Rise Set
Actual Time
Civil Twilight
Nautical Twilight
Astronomical Twilight
Moon
Length of Visible Light
Length of Day
Tomorrow will be .
, % of the Moon is Illuminated

Today's Extremes

State Highs State Lows

Community

WunderPhotos

Upload Photos

1,801,798 photos uploaded!

WunderBlogs® & News

Nearby

Air Quality

  Air Quality AQ Index Pollutant
Not available.

Snow Depth

Station Depth Elevation

Earthquake Activity

City Distance Mag. Time & Date
Minimum magnitude displayed is 2.5.

Coastal Water Temperatures

Place Temperature

Nearby Weather Stations